sensor_id;sensor_type;location;lat;lon;timestamp;pressure;altitude;pressure_sealevel;temperature;humidity
80747;BME280;70144;50.218;14.322;2023-10-13T00:00:29;99055.44;;;15.33;85.15
80747;BME280;70144;50.218;14.322;2023-10-13T00:02:56;99051.03;;;15.32;84.14
80747;BME280;70144;50.218;14.322;2023-10-13T00:05:29;99044.56;;;15.36;84.12
80747;BME280;70144;50.218;14.322;2023-10-13T00:07:56;99045.19;;;15.33;84.26
80747;BME280;70144;50.218;14.322;2023-10-13T00:10:29;99036.13;;;15.33;84.77
80747;BME280;70144;50.218;14.322;2023-10-13T00:12:54;99043.41;;;15.37;84.06
80747;BME280;70144;50.218;14.322;2023-10-13T00:15:30;99035.78;;;15.34;84.42
80747;BME280;70144;50.218;14.322;2023-10-13T00:18:04;99051.38;;;15.39;84.29
80747;BME280;70144;50.218;14.322;2023-10-13T00:20:34;99051.88;;;15.41;83.51
80747;BME280;70144;50.218;14.322;2023-10-13T00:23:03;99050.09;;;15.36;83.82
80747;BME280;70144;50.218;14.322;2023-10-13T00:25:29;99060.97;;;15.42;83.72
80747;BME280;70144;50.218;14.322;2023-10-13T00:28:09;99050.09;;;15.36;84.97
80747;BME280;70144;50.218;14.322;2023-10-13T00:30:34;99041.44;;;15.29;84.61
80747;BME280;70144;50.218;14.322;2023-10-13T00:32:59;99053.78;;;15.32;84.77
80747;BME280;70144;50.218;14.322;2023-10-13T00:35:26;99051.69;;;15.37;84.21
80747;BME280;70144;50.218;14.322;2023-10-13T00:38:05;99060.78;;;15.38;84.10
80747;BME280;70144;50.218;14.322;2023-10-13T00:40:42;99057.53;;;15.36;84.46
80747;BME280;70144;50.218;14.322;2023-10-13T00:43:21;99051.03;;;15.32;85.13
80747;BME280;70144;50.218;14.322;2023-10-13T00:48:32;99060.13;;;15.32;84.07
80747;BME280;70144;50.218;14.322;2023-10-13T00:51:01;99063.38;;;15.34;84.64
80747;BME280;70144;50.218;14.322;2023-10-13T00:53:35;99062.53;;;15.34;84.82
80747;BME280;70144;50.218;14.322;2023-10-13T00:56:09;99073.56;;;15.34;84.97
80747;BME280;70144;50.218;14.322;2023-10-13T00:58:44;99063.19;;;15.31;84.42
80747;BME280;70144;50.218;14.322;2023-10-13T01:01:11;99073.22;;;15.27;84.86
80747;BME280;70144;50.218;14.322;2023-10-13T01:03:49;99064.81;;;15.32;83.64
80747;BME280;70144;50.218;14.322;2023-10-13T01:06:18;99055.38;;;15.24;84.85
80747;BME280;70144;50.218;14.322;2023-10-13T01:08:46;99072.59;;;15.30;85.41
80747;BME280;70144;50.218;14.322;2023-10-13T01:11:19;99075.34;;;15.30;84.43
80747;BME280;70144;50.218;14.322;2023-10-13T01:13:45;99083.47;;;15.35;84.96
80747;BME280;70144;50.218;14.322;2023-10-13T01:16:16;99078.91;;;15.30;84.15
80747;BME280;70144;50.218;14.322;2023-10-13T01:18:42;99084.59;;;15.34;84.26
80747;BME280;70144;50.218;14.322;2023-10-13T01:21:14;99090.81;;;15.40;84.20
80747;BME280;70144;50.218;14.322;2023-10-13T01:23:43;99084.94;;;15.32;84.33
80747;BME280;70144;50.218;14.322;2023-10-13T01:26:09;99079.44;;;15.32;84.60
80747;BME280;70144;50.218;14.322;2023-10-13T01:28:35;99084.59;;;15.34;84.55
80747;BME280;70144;50.218;14.322;2023-10-13T01:31:12;99093.41;;;15.36;83.91
80747;BME280;70144;50.218;14.322;2023-10-13T01:33:55;99083.00;;;15.33;84.20
80747;BME280;70144;50.218;14.322;2023-10-13T01:36:26;99090.81;;;15.40;83.66
80747;BME280;70144;50.218;14.322;2023-10-13T01:38:53;99087.06;;;15.35;84.62
80747;BME280;70144;50.218;14.322;2023-10-13T01:41:19;99087.19;;;15.30;85.28
80747;BME280;70144;50.218;14.322;2023-10-13T01:43:45;99086.53;;;15.25;85.77
80747;BME280;70144;50.218;14.322;2023-10-13T01:46:11;99085.75;;;15.33;83.94
80747;BME280;70144;50.218;14.322;2023-10-13T01:48:40;99090.28;;;15.29;85.31
80747;BME280;70144;50.218;14.322;2023-10-13T01:51:07;99079.56;;;15.27;85.01
80747;BME280;70144;50.218;14.322;2023-10-13T01:53:37;99090.75;;;15.31;85.12
80747;BME280;70144;50.218;14.322;2023-10-13T01:56:05;99081.00;;;15.25;85.42
80747;BME280;70144;50.218;14.322;2023-10-13T01:58:35;99086.88;;;15.32;84.47
80747;BME280;70144;50.218;14.322;2023-10-13T02:01:00;99088.63;;;15.28;84.87
80747;BME280;70144;50.218;14.322;2023-10-13T02:03:26;99086.81;;;15.23;84.75
80747;BME280;70144;50.218;14.322;2023-10-13T02:05:55;99082.31;;;15.27;83.89
80747;BME280;70144;50.218;14.322;2023-10-13T02:08:23;99086.53;;;15.25;84.88
80747;BME280;70144;50.218;14.322;2023-10-13T02:10:56;99083.06;;;15.19;84.56
80747;BME280;70144;50.218;14.322;2023-10-13T02:13:23;99089.69;;;15.18;85.63
80747;BME280;70144;50.218;14.322;2023-10-13T02:15:52;99090.22;;;15.20;84.52
80747;BME280;70144;50.218;14.322;2023-10-13T02:19:23;99092.66;;;15.22;84.60
80747;BME280;70144;50.218;14.322;2023-10-13T02:21:52;99094.63;;;15.21;85.18
80747;BME280;70144;50.218;14.322;2023-10-13T02:24:24;99082.41;;;15.14;85.22
80747;BME280;70144;50.218;14.322;2023-10-13T02:26:55;99094.44;;;15.18;85.29
80747;BME280;70144;50.218;14.322;2023-10-13T02:29:21;99099.44;;;15.16;84.89
80747;BME280;70144;50.218;14.322;2023-10-13T02:31:47;99103.00;;;15.16;84.93
80747;BME280;70144;50.218;14.322;2023-10-13T02:34:20;99105.94;;;15.20;84.72
80747;BME280;70144;50.218;14.322;2023-10-13T02:36:47;99104.00;;;15.20;85.39
80747;BME280;70144;50.218;14.322;2023-10-13T02:39:17;99098.66;;;15.24;84.97
80747;BME280;70144;50.218;14.322;2023-10-13T02:41:49;99075.13;;;15.18;84.99
80747;BME280;70144;50.218;14.322;2023-10-13T02:44:15;99089.88;;;15.22;84.80
80747;BME280;70144;50.218;14.322;2023-10-13T02:46:56;99081.31;;;15.23;83.62
80747;BME280;70144;50.218;14.322;2023-10-13T02:49:24;99075.81;;;15.23;84.06
80747;BME280;70144;50.218;14.322;2023-10-13T02:51:51;99080.66;;;15.18;84.54
80747;BME280;70144;50.218;14.322;2023-10-13T02:54:18;99077.88;;;15.18;84.64
80747;BME280;70144;50.218;14.322;2023-10-13T02:56:44;99068.75;;;15.09;84.82
80747;BME280;70144;50.218;14.322;2023-10-13T02:59:23;99063.16;;;15.00;84.75
80747;BME280;70144;50.218;14.322;2023-10-13T03:02:02;99055.00;;;14.86;85.25
80747;BME280;70144;50.218;14.322;2023-10-13T03:04:49;99067.38;;;14.98;84.47
80747;BME280;70144;50.218;14.322;2023-10-13T03:07:15;99062.88;;;15.02;83.45
80747;BME280;70144;50.218;14.322;2023-10-13T03:09:43;99064.63;;;14.75;84.79
80747;BME280;70144;50.218;14.322;2023-10-13T03:12:16;99079.00;;;14.72;85.11
80747;BME280;70144;50.218;14.322;2023-10-13T03:14:42;99070.25;;;14.70;84.52
80747;BME280;70144;50.218;14.322;2023-10-13T03:17:07;99071.53;;;14.64;84.34
80747;BME280;70144;50.218;14.322;2023-10-13T03:19:42;99083.97;;;14.62;84.63
80747;BME280;70144;50.218;14.322;2023-10-13T03:22:11;99076.50;;;14.62;84.51
80747;BME280;70144;50.218;14.322;2023-10-13T03:24:38;99079.28;;;14.62;84.87
80747;BME280;70144;50.218;14.322;2023-10-13T03:27:14;99079.47;;;14.66;85.63
80747;BME280;70144;50.218;14.322;2023-10-13T03:29:44;99071.09;;;14.71;85.01
80747;BME280;70144;50.218;14.322;2023-10-13T03:32:11;99074.78;;;14.66;85.76
80747;BME280;70144;50.218;14.322;2023-10-13T03:34:40;99079.22;;;14.76;85.00
80747;BME280;70144;50.218;14.322;2023-10-13T03:37:18;99054.84;;;14.69;84.68
80747;BME280;70144;50.218;14.322;2023-10-13T03:39:45;99076.59;;;14.71;85.90
80747;BME280;70144;50.218;14.322;2023-10-13T03:42:11;99067.50;;;14.70;85.51
80747;BME280;70144;50.218;14.322;2023-10-13T03:44:47;99071.19;;;14.66;85.55
80747;BME280;70144;50.218;14.322;2023-10-13T03:47:13;99073.66;;;14.67;85.09
80747;BME280;70144;50.218;14.322;2023-10-13T03:49:54;99061.69;;;14.72;84.25
80747;BME280;70144;50.218;14.322;2023-10-13T03:52:40;99061.75;;;14.58;84.96
80747;BME280;70144;50.218;14.322;2023-10-13T03:55:06;99066.56;;;14.53;84.80
80747;BME280;70144;50.218;14.322;2023-10-13T03:57:32;99070.16;;;14.53;84.88
80747;BME280;70144;50.218;14.322;2023-10-13T04:00:03;99056.50;;;14.48;84.91
80747;BME280;70144;50.218;14.322;2023-10-13T04:02:34;99067.81;;;14.47;84.83
80747;BME280;70144;50.218;14.322;2023-10-13T04:04:59;99064.56;;;14.45;84.68
80747;BME280;70144;50.218;14.322;2023-10-13T04:07:32;99068.34;;;14.35;85.13
80747;BME280;70144;50.218;14.322;2023-10-13T04:09:58;99053.75;;;14.34;84.36
80747;BME280;70144;50.218;14.322;2023-10-13T04:12:55;99054.06;;;14.33;84.40
80747;BME280;70144;50.218;14.322;2023-10-13T04:15:39;99050.09;;;14.39;84.07
80747;BME280;70144;50.218;14.322;2023-10-13T04:18:27;99048.16;;;14.39;84.32
80747;BME280;70144;50.218;14.322;2023-10-13T04:21:11;99049.25;;;14.38;83.82
80747;BME280;70144;50.218;14.322;2023-10-13T04:23:56;99055.09;;;14.37;83.55
80747;BME280;70144;50.218;14.322;2023-10-13T04:26:40;99054.16;;;14.28;83.51
80747;BME280;70144;50.218;14.322;2023-10-13T04:29:25;99042.28;;;14.19;84.33
80747;BME280;70144;50.218;14.322;2023-10-13T04:32:09;99046.44;;;14.30;83.26
80747;BME280;70144;50.218;14.322;2023-10-13T04:34:39;99049.28;;;14.25;83.55
80747;BME280;70144;50.218;14.322;2023-10-13T04:37:05;99045.13;;;14.14;83.92
80747;BME280;70144;50.218;14.322;2023-10-13T04:39:49;99038.31;;;14.11;83.83
80747;BME280;70144;50.218;14.322;2023-10-13T04:42:22;99044.31;;;14.13;83.85
80747;BME280;70144;50.218;14.322;2023-10-13T04:45:06;99038.44;;;14.06;84.40
80747;BME280;70144;50.218;14.322;2023-10-13T04:47:51;99030.28;;;14.01;84.06
80747;BME280;70144;50.218;14.322;2023-10-13T04:50:22;99041.28;;;14.01;84.93
80747;BME280;70144;50.218;14.322;2023-10-13T04:52:52;99036.16;;;14.08;83.69
80747;BME280;70144;50.218;14.322;2023-10-13T04:55:27;99029.47;;;14.01;83.87
80747;BME280;70144;50.218;14.322;2023-10-13T04:58:13;99041.72;;;13.94;83.84
80747;BME280;70144;50.218;14.322;2023-10-13T05:01:05;99033.88;;;13.88;84.20
80747;BME280;70144;50.218;14.322;2023-10-13T05:03:49;99036.91;;;14.00;83.42
80747;BME280;70144;50.218;14.322;2023-10-13T05:06:18;99036.00;;;13.91;83.62
80747;BME280;70144;50.218;14.322;2023-10-13T05:09:06;99040.06;;;13.93;83.99
80747;BME280;70144;50.218;14.322;2023-10-13T05:11:50;99038.25;;;14.03;83.58
80747;BME280;70144;50.218;14.322;2023-10-13T05:14:34;99046.97;;;14.05;83.81
80747;BME280;70144;50.218;14.322;2023-10-13T05:17:18;99042.50;;;14.09;83.70
80747;BME280;70144;50.218;14.322;2023-10-13T05:20:02;99042.72;;;13.99;85.54
80747;BME280;70144;50.218;14.322;2023-10-13T05:22:53;99053.63;;;14.04;85.92
80747;BME280;70144;50.218;14.322;2023-10-13T05:25:37;99051.25;;;14.11;85.00
80747;BME280;70144;50.218;14.322;2023-10-13T05:28:22;99038.44;;;14.06;86.00
80747;BME280;70144;50.218;14.322;2023-10-13T05:31:07;99033.75;;;14.07;85.42
80747;BME280;70144;50.218;14.322;2023-10-13T05:33:51;99044.03;;;14.15;84.91
80747;BME280;70144;50.218;14.322;2023-10-13T05:36:35;99035.44;;;14.16;85.94
80747;BME280;70144;50.218;14.322;2023-10-13T05:39:18;99042.66;;;14.26;85.33
80747;BME280;70144;50.218;14.322;2023-10-13T05:42:02;99034.91;;;14.28;84.57
80747;BME280;70144;50.218;14.322;2023-10-13T05:44:46;99040.22;;;14.38;85.04
80747;BME280;70144;50.218;14.322;2023-10-13T05:47:30;99037.94;;;14.40;84.98
80747;BME280;70144;50.218;14.322;2023-10-13T05:50:13;99035.81;;;14.37;86.71
80747;BME280;70144;50.218;14.322;2023-10-13T05:52:48;99039.78;;;14.45;85.55
80747;BME280;70144;50.218;14.322;2023-10-13T05:55:25;99052.47;;;14.54;84.61
80747;BME280;70144;50.218;14.322;2023-10-13T05:58:09;99053.28;;;14.55;86.40
80747;BME280;70144;50.218;14.322;2023-10-13T06:00:53;99054.47;;;14.62;85.16
80747;BME280;70144;50.218;14.322;2023-10-13T06:03:37;99051.09;;;14.65;86.13
80747;BME280;70144;50.218;14.322;2023-10-13T06:06:21;99043.97;;;14.64;85.95
80747;BME280;70144;50.218;14.322;2023-10-13T06:09:05;99056.69;;;14.74;85.98
80747;BME280;70144;50.218;14.322;2023-10-13T06:11:49;99049.72;;;14.76;85.30
80747;BME280;70144;50.218;14.322;2023-10-13T06:14:33;99058.03;;;14.85;86.31
80747;BME280;70144;50.218;14.322;2023-10-13T06:17:17;99061.81;;;14.89;84.85
80747;BME280;70144;50.218;14.322;2023-10-13T06:20:01;99065.06;;;14.91;87.19
80747;BME280;70144;50.218;14.322;2023-10-13T06:22:49;99069.63;;;14.96;85.67
80747;BME280;70144;50.218;14.322;2023-10-13T06:25:33;99073.38;;;15.00;87.92
80747;BME280;70144;50.218;14.322;2023-10-13T06:28:16;99070.50;;;15.05;85.97
80747;BME280;70144;50.218;14.322;2023-10-13T06:31:02;99063.88;;;15.06;86.47
80747;BME280;70144;50.218;14.322;2023-10-13T06:33:31;99079.66;;;15.14;87.96
80747;BME280;70144;50.218;14.322;2023-10-13T06:35:59;99075.75;;;15.15;88.34
80747;BME280;70144;50.218;14.322;2023-10-13T06:38:24;99067.97;;;15.17;84.86
80747;BME280;70144;50.218;14.322;2023-10-13T06:40:52;99074.34;;;15.26;85.31
80747;BME280;70144;50.218;14.322;2023-10-13T06:43:17;99079.25;;;15.29;87.02
80747;BME280;70144;50.218;14.322;2023-10-13T06:45:47;99073.91;;;15.32;86.87
80747;BME280;70144;50.218;14.322;2023-10-13T06:48:23;99082.84;;;15.38;86.43
80747;BME280;70144;50.218;14.322;2023-10-13T06:50:49;99086.59;;;15.42;86.12
80747;BME280;70144;50.218;14.322;2023-10-13T06:53:14;99095.06;;;15.46;85.83
80747;BME280;70144;50.218;14.322;2023-10-13T06:55:41;99090.88;;;15.48;85.79
80747;BME280;70144;50.218;14.322;2023-10-13T06:58:12;99090.25;;;15.51;84.67
80747;BME280;70144;50.218;14.322;2023-10-13T07:00:39;99086.38;;;15.52;85.78
80747;BME280;70144;50.218;14.322;2023-10-13T07:03:18;99069.50;;;15.54;85.83
80747;BME280;70144;50.218;14.322;2023-10-13T07:05:44;99090.78;;;15.62;84.84
80747;BME280;70144;50.218;14.322;2023-10-13T07:08:10;99095.66;;;15.65;87.20
80747;BME280;70144;50.218;14.322;2023-10-13T07:10:59;99093.41;;;15.67;86.71
80747;BME280;70144;50.218;14.322;2023-10-13T07:13:34;99089.50;;;15.68;85.56
80747;BME280;70144;50.218;14.322;2023-10-13T07:16:05;99088.72;;;15.67;85.85
80747;BME280;70144;50.218;14.322;2023-10-13T07:18:37;99081.72;;;15.70;86.63
80747;BME280;70144;50.218;14.322;2023-10-13T07:21:10;99089.53;;;15.76;85.05
80747;BME280;70144;50.218;14.322;2023-10-13T07:23:36;99091.03;;;15.82;86.63
80747;BME280;70144;50.218;14.322;2023-10-13T07:26:02;99088.09;;;15.88;85.18
80747;BME280;70144;50.218;14.322;2023-10-13T07:28:32;99083.09;;;15.98;87.62
80747;BME280;70144;50.218;14.322;2023-10-13T07:31:02;99083.28;;;16.02;85.40
80747;BME280;70144;50.218;14.322;2023-10-13T07:33:27;99083.94;;;16.07;85.61
80747;BME280;70144;50.218;14.322;2023-10-13T07:36:04;99083.16;;;16.15;86.73
80747;BME280;70144;50.218;14.322;2023-10-13T07:38:37;99071.63;;;16.22;86.92
80747;BME280;70144;50.218;14.322;2023-10-13T07:41:07;99072.31;;;16.27;85.00
80747;BME280;70144;50.218;14.322;2023-10-13T07:43:33;99077.03;;;16.36;85.58
80747;BME280;70144;50.218;14.322;2023-10-13T07:45:59;99077.03;;;16.36;85.42
80747;BME280;70144;50.218;14.322;2023-10-13T07:48:31;99078.16;;;16.43;83.66
80747;BME280;70144;50.218;14.322;2023-10-13T07:50:59;99078.66;;;16.54;85.31
80747;BME280;70144;50.218;14.322;2023-10-13T07:53:41;99057.22;;;16.59;86.63
80747;BME280;70144;50.218;14.322;2023-10-13T07:56:07;99075.09;;;16.79;84.91
80747;BME280;70144;50.218;14.322;2023-10-13T07:58:38;99066.31;;;16.77;84.73
80747;BME280;70144;50.218;14.322;2023-10-13T08:01:20;99062.09;;;16.88;84.31
80747;BME280;70144;50.218;14.322;2023-10-13T08:03:46;99059.94;;;16.94;84.15
80747;BME280;70144;50.218;14.322;2023-10-13T08:06:14;99068.38;;;17.06;84.43
80747;BME280;70144;50.218;14.322;2023-10-13T08:08:39;99055.06;;;17.08;84.48
80747;BME280;70144;50.218;14.322;2023-10-13T08:11:12;99066.22;;;17.20;85.31
80747;BME280;70144;50.218;14.322;2023-10-13T08:13:51;99058.59;;;17.25;84.14
80747;BME280;70144;50.218;14.322;2023-10-13T08:16:20;99066.56;;;17.27;83.28
80747;BME280;70144;50.218;14.322;2023-10-13T08:18:47;99069.34;;;17.27;82.41
80747;BME280;70144;50.218;14.322;2023-10-13T08:21:15;99073.03;;;17.31;83.10
80747;BME280;70144;50.218;14.322;2023-10-13T08:23:51;99067.50;;;17.31;83.50
80747;BME280;70144;50.218;14.322;2023-10-13T08:26:24;99060.38;;;17.30;83.25
80747;BME280;70144;50.218;14.322;2023-10-13T08:28:58;99055.59;;;17.39;83.03
80747;BME280;70144;50.218;14.322;2023-10-13T08:31:30;99062.63;;;17.37;84.01
80747;BME280;70144;50.218;14.322;2023-10-13T08:33:55;99050.41;;;17.38;83.08
80747;BME280;70144;50.218;14.322;2023-10-13T08:36:31;99039.78;;;17.48;81.77
80747;BME280;70144;50.218;14.322;2023-10-13T08:38:57;99037.03;;;17.57;83.09
80747;BME280;70144;50.218;14.322;2023-10-13T08:41:23;99032.75;;;17.68;81.82
80747;BME280;70144;50.218;14.322;2023-10-13T08:43:52;99034.66;;;17.76;82.88
80747;BME280;70144;50.218;14.322;2023-10-13T08:46:18;99032.50;;;17.82;81.57
80747;BME280;70144;50.218;14.322;2023-10-13T08:48:57;99037.44;;;17.97;81.55
80747;BME280;70144;50.218;14.322;2023-10-13T08:51:39;99038.31;;;18.18;81.89
80747;BME280;70144;50.218;14.322;2023-10-13T08:54:15;99036.63;;;18.26;81.50
80747;BME280;70144;50.218;14.322;2023-10-13T08:57:00;99038.31;;;18.39;79.98
80747;BME280;70144;50.218;14.322;2023-10-13T08:59:45;99037.63;;;18.42;80.58
80747;BME280;70144;50.218;14.322;2023-10-13T09:02:21;99031.84;;;18.55;80.45
80747;BME280;70144;50.218;14.322;2023-10-13T09:04:49;99045.47;;;18.60;79.80
80747;BME280;70144;50.218;14.322;2023-10-13T09:07:25;99038.59;;;18.66;79.51
80747;BME280;70144;50.218;14.322;2023-10-13T09:09:51;99035.75;;;18.75;79.40
80747;BME280;70144;50.218;14.322;2023-10-13T09:14:56;99024.72;;;18.99;79.14
80747;BME280;70144;50.218;14.322;2023-10-13T09:17:31;99030.31;;;19.11;78.02
80747;BME280;70144;50.218;14.322;2023-10-13T09:20:09;99029.50;;;19.11;77.46
80747;BME280;70144;50.218;14.322;2023-10-13T09:22:58;99029.78;;;19.30;75.80
80747;BME280;70144;50.218;14.322;2023-10-13T09:25:29;99029.09;;;19.33;76.15
80747;BME280;70144;50.218;14.322;2023-10-13T09:28:14;99032.78;;;19.25;75.65
80747;BME280;70144;50.218;14.322;2023-10-13T09:30:53;99027.09;;;19.22;75.80
80747;BME280;70144;50.218;14.322;2023-10-13T09:33:31;99022.00;;;19.11;76.07
80747;BME280;70144;50.218;14.322;2023-10-13T09:36:06;99037.06;;;19.23;76.09
80747;BME280;70144;50.218;14.322;2023-10-13T09:38:38;99030.84;;;19.38;75.66
80747;BME280;70144;50.218;14.322;2023-10-13T09:41:12;99026.59;;;19.40;75.68
80747;BME280;70144;50.218;14.322;2023-10-13T09:43:44;99018.91;;;19.37;75.12
80747;BME280;70144;50.218;14.322;2023-10-13T09:46:18;99017.34;;;19.48;75.04
80747;BME280;70144;50.218;14.322;2023-10-13T09:48:46;99009.13;;;19.52;75.40
80747;BME280;70144;50.218;14.322;2023-10-13T09:51:13;99021.41;;;19.75;75.16
80747;BME280;70144;50.218;14.322;2023-10-13T09:53:41;99008.34;;;19.88;74.06
80747;BME280;70144;50.218;14.322;2023-10-13T09:56:32;99016.66;;;19.88;74.83
80747;BME280;70144;50.218;14.322;2023-10-13T09:59:07;99016.44;;;19.81;74.66
80747;BME280;70144;50.218;14.322;2023-10-13T10:01:45;99017.38;;;19.73;75.51
80747;BME280;70144;50.218;14.322;2023-10-13T10:04:22;99011.09;;;19.63;75.68
80747;BME280;70144;50.218;14.322;2023-10-13T10:07:06;99005.09;;;19.61;75.54
80747;BME280;70144;50.218;14.322;2023-10-13T10:09:34;98999.09;;;19.47;75.80
80747;BME280;70144;50.218;14.322;2023-10-13T10:15:06;98996.53;;;19.54;76.24
80747;BME280;70144;50.218;14.322;2023-10-13T10:17:39;99003.97;;;19.62;75.45
80747;BME280;70144;50.218;14.322;2023-10-13T10:20:06;98994.13;;;19.65;75.71
80747;BME280;70144;50.218;14.322;2023-10-13T10:22:56;98989.13;;;19.83;74.73
80747;BME280;70144;50.218;14.322;2023-10-13T10:25:32;98979.53;;;19.80;74.51
80747;BME280;70144;50.218;14.322;2023-10-13T10:28:02;98979.50;;;19.92;74.55
80747;BME280;70144;50.218;14.322;2023-10-13T10:30:31;98978.59;;;19.88;75.14
80747;BME280;70144;50.218;14.322;2023-10-13T10:33:01;98988.50;;;20.01;73.12
80747;BME280;70144;50.218;14.322;2023-10-13T10:35:31;98983.88;;;20.05;74.21
80747;BME280;70144;50.218;14.322;2023-10-13T10:38:11;98979.25;;;20.09;74.34
80747;BME280;70144;50.218;14.322;2023-10-13T10:40:52;98974.38;;;20.19;73.71
80747;BME280;70144;50.218;14.322;2023-10-13T10:43:28;98983.63;;;20.35;73.79
80747;BME280;70144;50.218;14.322;2023-10-13T10:46:12;98966.56;;;20.36;74.24
80747;BME280;70144;50.218;14.322;2023-10-13T10:48:38;98965.28;;;20.46;72.83
80747;BME280;70144;50.218;14.322;2023-10-13T10:51:08;98962.41;;;20.42;73.07
80747;BME280;70144;50.218;14.322;2023-10-13T10:53:40;98955.97;;;20.54;71.76
80747;BME280;70144;50.218;14.322;2023-10-13T10:56:13;98954.66;;;20.64;72.33
80747;BME280;70144;50.218;14.322;2023-10-13T10:58:49;98947.28;;;20.55;73.31
80747;BME280;70144;50.218;14.322;2023-10-13T11:01:20;98951.22;;;20.54;72.49
80747;BME280;70144;50.218;14.322;2023-10-13T11:03:58;98949.41;;;20.46;71.12
80747;BME280;70144;50.218;14.322;2023-10-13T11:06:37;98949.75;;;20.45;72.02
80747;BME280;70144;50.218;14.322;2023-10-13T11:09:07;98940.97;;;20.43;69.19
80747;BME280;70144;50.218;14.322;2023-10-13T11:11:47;98948.22;;;20.47;70.18
80747;BME280;70144;50.218;14.322;2023-10-13T11:14:26;98943.47;;;20.48;70.85
80747;BME280;70144;50.218;14.322;2023-10-13T11:16:53;98944.63;;;20.47;70.20
80747;BME280;70144;50.218;14.322;2023-10-13T11:19:20;98922.06;;;20.48;71.27
80747;BME280;70144;50.218;14.322;2023-10-13T11:21:51;98933.38;;;20.55;68.33
80747;BME280;70144;50.218;14.322;2023-10-13T11:24:17;98937.00;;;20.72;69.57
80747;BME280;70144;50.218;14.322;2023-10-13T11:26:43;98934.88;;;20.81;71.43
80747;BME280;70144;50.218;14.322;2023-10-13T11:31:47;98918.00;;;20.89;69.20
80747;BME280;70144;50.218;14.322;2023-10-13T11:34:33;98915.22;;;20.89;70.36
80747;BME280;70144;50.218;14.322;2023-10-13T11:37:05;98918.63;;;20.83;70.99
80747;BME280;70144;50.218;14.322;2023-10-13T11:39:51;98906.84;;;20.74;71.38
80747;BME280;70144;50.218;14.322;2023-10-13T11:42:17;98905.50;;;20.68;72.12
80747;BME280;70144;50.218;14.322;2023-10-13T11:44:42;98903.06;;;20.66;72.44
80747;BME280;70144;50.218;14.322;2023-10-13T11:47:10;98893.13;;;20.65;70.61
80747;BME280;70144;50.218;14.322;2023-10-13T11:50:02;98881.28;;;20.68;70.37
80747;BME280;70144;50.218;14.322;2023-10-13T11:52:30;98889.28;;;20.85;70.21
80747;BME280;70144;50.218;14.322;2023-10-13T11:54:55;98875.38;;;21.01;69.34
80747;BME280;70144;50.218;14.322;2023-10-13T11:57:21;98879.72;;;21.14;68.89
80747;BME280;70144;50.218;14.322;2023-10-13T11:59:47;98880.06;;;21.13;69.51
80747;BME280;70144;50.218;14.322;2023-10-13T12:02:19;98867.88;;;21.17;67.86
80747;BME280;70144;50.218;14.322;2023-10-13T12:04:51;98871.09;;;21.19;67.63
80747;BME280;70144;50.218;14.322;2023-10-13T12:07:28;98865.34;;;21.12;67.07
80747;BME280;70144;50.218;14.322;2023-10-13T12:10:13;98866.44;;;21.08;67.43
80747;BME280;70144;50.218;14.322;2023-10-13T12:12:58;98849.72;;;20.92;71.62
80747;BME280;70144;50.218;14.322;2023-10-13T12:15:31;98859.75;;;20.96;71.30
80747;BME280;70144;50.218;14.322;2023-10-13T12:18:03;98853.59;;;21.03;69.86
80747;BME280;70144;50.218;14.322;2023-10-13T12:20:28;98855.63;;;21.06;69.80
80747;BME280;70144;50.218;14.322;2023-10-13T12:23:01;98840.66;;;21.11;68.86
80747;BME280;70144;50.218;14.322;2023-10-13T12:25:40;98844.50;;;21.06;71.95
80747;BME280;70144;50.218;14.322;2023-10-13T12:28:22;98840.66;;;21.11;69.60
80747;BME280;70144;50.218;14.322;2023-10-13T12:30:49;98836.91;;;21.19;63.92
80747;BME280;70144;50.218;14.322;2023-10-13T12:33:15;98838.31;;;21.28;63.67
80747;BME280;70144;50.218;14.322;2023-10-13T12:35:50;98831.41;;;21.38;63.58
80747;BME280;70144;50.218;14.322;2023-10-13T12:38:44;98828.13;;;21.51;62.93
80747;BME280;70144;50.218;14.322;2023-10-13T12:41:15;98811.69;;;21.46;64.41
80747;BME280;70144;50.218;14.322;2023-10-13T12:44:00;98823.16;;;21.61;64.42
80747;BME280;70144;50.218;14.322;2023-10-13T12:46:44;98818.56;;;21.68;64.06
80747;BME280;70144;50.218;14.322;2023-10-13T12:49:28;98818.56;;;21.87;65.04
80747;BME280;70144;50.218;14.322;2023-10-13T12:52:09;98812.75;;;22.15;63.90
80747;BME280;70144;50.218;14.322;2023-10-13T12:54:45;98808.22;;;22.49;63.41
80747;BME280;70144;50.218;14.322;2023-10-13T12:57:15;98794.00;;;22.77;60.53
80747;BME280;70144;50.218;14.322;2023-10-13T12:59:41;98786.91;;;22.83;62.55
80747;BME280;70144;50.218;14.322;2023-10-13T13:02:06;98792.00;;;23.00;63.08
80747;BME280;70144;50.218;14.322;2023-10-13T13:04:33;98788.13;;;23.34;62.49
80747;BME280;70144;50.218;14.322;2023-10-13T13:07:02;98783.25;;;23.28;62.18
80747;BME280;70144;50.218;14.322;2023-10-13T13:09:28;98780.88;;;23.04;59.13
80747;BME280;70144;50.218;14.322;2023-10-13T13:11:53;98777.78;;;22.82;63.53
80747;BME280;70144;50.218;14.322;2023-10-13T13:14:25;98764.81;;;22.71;62.10
80747;BME280;70144;50.218;14.322;2023-10-13T13:16:59;98766.09;;;22.54;61.79
80747;BME280;70144;50.218;14.322;2023-10-13T13:19:33;98761.69;;;22.53;58.17
80747;BME280;70144;50.218;14.322;2023-10-13T13:22:01;98758.41;;;22.47;59.20
80747;BME280;70144;50.218;14.322;2023-10-13T13:24:27;98746.41;;;22.43;59.74
80747;BME280;70144;50.218;14.322;2023-10-13T13:26:55;98752.84;;;22.47;61.11
80747;BME280;70144;50.218;14.322;2023-10-13T13:29:21;98744.41;;;22.44;60.66
80747;BME280;70144;50.218;14.322;2023-10-13T13:31:46;98736.06;;;22.44;61.36
80747;BME280;70144;50.218;14.322;2023-10-13T13:34:11;98736.47;;;22.46;58.32